Time;durP1;ratioP1;P1;durP2;ratioP2;P2;SDS_P1;SDS_P2;PMS_P1;PMS_P2;Temp;Humidity;BMP_temperature;BMP_pressure;BME280_temperature;BME280_humidity;BME280_pressure;Samples;Min_cycle;Max_cycle;Signal;HPM_P1;HPM_P2
2023/02/20 00:01:51;;;;;;;6.55;2.45;;;;;;;6.50;79.95;97248.81;5049595;28;20040;-74
2023/02/20 00:04:17;;;;;;;5.15;2.50;;;;;;;6.56;79.59;97248.81;5048935;28;20041;-74
2023/02/20 00:06:45;;;;;;;7.70;2.97;;;;;;;6.52;79.43;97260.19;5049161;28;20041;-73
2023/02/20 00:09:11;;;;;;;6.78;2.67;;;;;;;6.51;79.65;97253.13;5049080;28;20045;-74
2023/02/20 00:11:39;;;;;;;5.00;2.42;;;;;;;6.50;79.62;97256.13;5049674;28;20048;-73
2023/02/20 00:14:06;;;;;;;9.60;2.75;;;;;;;6.48;79.39;97252.88;5048986;28;20389;-73
2023/02/20 00:16:33;;;;;;;4.78;2.33;;;;;;;6.52;79.47;97243.97;5049759;28;20049;-74
2023/02/20 00:18:59;;;;;;;7.50;2.42;;;;;;;6.50;79.52;97254.22;5049171;28;20454;-74
2023/02/20 00:21:26;;;;;;;5.72;1.90;;;;;;;6.51;79.63;97252.31;5048856;28;20041;-74
2023/02/20 00:23:52;;;;;;;6.65;2.50;;;;;;;6.46;79.26;97249.63;5049604;28;20044;-74
2023/02/20 00:26:19;;;;;;;11.32;3.03;;;;;;;6.45;79.57;97243.41;5048161;28;20056;-74
2023/02/20 00:28:47;;;;;;;6.75;2.67;;;;;;;6.43;79.80;97242.06;5049356;28;20643;-74
2023/02/20 00:31:15;;;;;;;5.57;2.30;;;;;;;6.45;79.72;97239.88;5048963;28;20506;-74
2023/02/20 00:33:42;;;;;;;7.43;2.88;;;;;;;6.43;79.63;97239.34;5049310;28;20396;-74
2023/02/20 00:36:15;;;;;;;5.18;2.20;;;;;;;6.39;79.94;97244.47;5048902;28;20140;-73
2023/02/20 00:38:42;;;;;;;5.40;3.20;;;;;;;6.41;79.45;97242.31;5049579;28;20094;-74
2023/02/20 00:41:10;;;;;;;5.72;2.58;;;;;;;6.46;79.10;97241.50;5048869;28;20045;-74
2023/02/20 00:43:37;;;;;;;7.28;2.53;;;;;;;6.48;79.33;97239.34;5048652;28;20075;-74
2023/02/20 00:46:05;;;;;;;5.00;2.30;;;;;;;6.45;79.11;97237.97;5048974;28;20076;-73
2023/02/20 00:48:32;;;;;;;5.88;2.63;;;;;;;6.48;79.01;97245.56;5049415;28;20049;-73
2023/02/20 00:50:58;;;;;;;8.70;2.40;;;;;;;6.48;78.94;97247.47;5049483;28;20041;-74
2023/02/20 00:53:24;;;;;;;8.00;2.40;;;;;;;6.50;78.86;97239.88;5048895;28;20053;-73
2023/02/20 00:55:51;;;;;;;6.13;1.98;;;;;;;6.50;78.66;97242.59;5050108;28;20052;-73
2023/02/20 00:58:17;;;;;;;5.47;2.03;;;;;;;6.48;78.90;97237.47;5050468;28;20053;-74
2023/02/20 01:00:44;;;;;;;5.97;1.85;;;;;;;6.47;78.90;97241.25;5051277;28;20049;-74
2023/02/20 01:03:13;;;;;;;6.22;2.63;;;;;;;6.48;78.63;97242.88;5050314;28;20064;-74
2023/02/20 01:05:39;;;;;;;6.47;2.15;;;;;;;6.48;78.84;97236.66;5051170;28;20393;-74
2023/02/20 01:08:06;;;;;;;8.88;2.33;;;;;;;6.50;78.62;97245.28;5050674;28;20056;-74
2023/02/20 01:10:32;;;;;;;5.63;2.28;;;;;;;6.52;78.33;97243.97;5052078;28;20053;-74
2023/02/20 01:12:59;;;;;;;6.50;2.30;;;;;;;6.52;78.69;97249.38;5058214;28;20049;-74
2023/02/20 01:15:25;;;;;;;5.47;1.98;;;;;;;6.50;78.92;97246.09;5061372;28;20049;-74
2023/02/20 01:17:52;;;;;;;7.45;3.05;;;;;;;6.48;79.03;97252.88;5060553;28;20618;-74
2023/02/20 01:20:20;;;;;;;7.47;2.30;;;;;;;6.44;78.87;97247.19;5058471;28;20049;-74
2023/02/20 01:22:46;;;;;;;5.25;2.00;;;;;;;6.44;79.23;97244.47;5060517;28;20041;-74
2023/02/20 01:25:13;;;;;;;5.55;2.70;;;;;;;6.43;78.95;97233.94;5060814;28;20053;-74
2023/02/20 01:27:39;;;;;;;7.07;2.60;;;;;;;6.44;78.82;97247.19;5059954;28;20045;-74
2023/02/20 01:30:07;;;;;;;6.45;2.30;;;;;;;6.38;79.29;97232.03;5059511;28;20072;-74
2023/02/20 01:32:34;;;;;;;4.88;2.63;;;;;;;6.37;79.42;97230.41;5059318;28;20049;-73
2023/02/20 01:35:00;;;;;;;4.57;2.50;;;;;;;6.39;79.31;97244.47;5053667;28;20049;-75
2023/02/20 01:37:28;;;;;;;6.45;3.08;;;;;;;6.36;79.36;97228.78;5052832;28;20049;-74
2023/02/20 01:39:55;;;;;;;6.35;2.40;;;;;;;6.36;79.45;97222.56;5052989;28;20048;-74
2023/02/20 01:42:24;;;;;;;8.80;2.55;;;;;;;6.32;79.33;97222.31;5052246;28;20048;-74
2023/02/20 01:44:51;;;;;;;5.72;2.45;;;;;;;6.33;79.25;97226.63;5052014;28;20063;-74
2023/02/20 01:47:20;;;;;;;7.28;2.70;;;;;;;6.30;79.65;97224.44;5051713;28;20098;-73
2023/02/20 01:49:51;;;;;;;5.00;2.55;;;;;;;6.32;79.39;97227.72;5052133;28;20503;-74
2023/02/20 01:52:21;;;;;;;5.65;2.80;;;;;;;6.32;79.30;97222.31;5052105;28;20052;-73
2023/02/20 01:54:52;;;;;;;5.70;2.40;;;;;;;6.33;79.08;97223.91;5052120;28;20036;-74
2023/02/20 01:57:22;;;;;;;5.47;2.70;;;;;;;6.34;79.20;97219.31;5051555;28;20475;-74
2023/02/20 01:59:51;;;;;;;5.88;2.58;;;;;;;6.34;79.11;97214.72;5051358;28;20040;-74
2023/02/20 02:02:18;;;;;;;6.38;2.60;;;;;;;6.31;79.77;97215.25;5051406;28;20076;-73
2023/02/20 02:04:47;;;;;;;5.45;2.03;;;;;;;6.31;79.55;97209.84;5051615;28;20721;-74
2023/02/20 02:07:14;;;;;;;4.97;1.95;;;;;;;6.31;79.52;97209.03;5051377;28;20052;-74
2023/02/20 02:09:47;;;;;;;5.60;2.55;;;;;;;6.34;79.49;97216.63;5051852;28;20045;-74
2023/02/20 02:12:16;;;;;;;6.43;2.65;;;;;;;6.30;79.43;97219.03;5051191;28;20098;-74
2023/02/20 02:14:42;;;;;;;6.90;3.05;;;;;;;6.32;79.64;97221.47;5051415;28;20049;-73
2023/02/20 02:17:25;;;;;;;6.05;2.55;;;;;;;6.34;78.97;97214.72;5051029;28;20499;-74
2023/02/20 02:20:36;;;;;;;6.25;2.60;;;;;;;6.35;79.27;97218.22;5051586;28;20036;-74
2023/02/20 02:23:39;;;;;;;8.23;3.08;;;;;;;6.34;79.39;97216.63;5022335;28;20048;-74
2023/02/20 02:26:21;;;;;;;5.57;2.10;;;;;;;6.35;79.34;97221.75;5030989;28;20045;-73
2023/02/20 02:29:14;;;;;;;5.63;1.60;;;;;;;6.32;79.53;97225.00;5031688;28;20099;-74
2023/02/20 02:32:08;;;;;;;4.97;2.45;;;;;;;6.32;79.71;97221.47;5031683;28;20045;-73
2023/02/20 02:35:00;;;;;;;7.78;2.88;;;;;;;6.32;79.79;97227.72;5038822;28;20044;-74
2023/02/20 02:37:34;;;;;;;5.85;2.72;;;;;;;6.30;79.66;97229.84;5046542;28;20496;-74
2023/02/20 02:40:06;;;;;;;6.97;2.80;;;;;;;6.29;80.06;97222.81;5050428;28;20458;-74
2023/02/20 02:42:43;;;;;;;5.38;2.53;;;;;;;6.34;79.92;97220.13;5051102;28;20041;-74
2023/02/20 02:45:15;;;;;;;4.50;2.53;;;;;;;6.30;79.94;97208.22;5050035;28;20045;-74
2023/02/20 02:47:48;;;;;;;5.90;2.65;;;;;;;6.25;80.13;97209.00;5050888;28;20037;-74
2023/02/20 02:50:21;;;;;;;6.28;2.65;;;;;;;6.26;80.72;97207.13;5030675;28;20056;-74
2023/02/20 02:52:52;;;;;;;6.35;2.15;;;;;;;6.26;80.70;97207.13;5031199;28;20037;-74
2023/02/20 02:55:21;;;;;;;6.75;2.83;;;;;;;6.25;80.82;97206.31;5030456;28;20135;-74
2023/02/20 02:57:48;;;;;;;6.90;3.00;;;;;;;6.26;80.83;97207.97;5035296;28;20048;-74
2023/02/20 03:00:18;;;;;;;6.47;2.33;;;;;;;6.26;81.21;97212.53;5049153;28;20041;-73
2023/02/20 03:02:50;;;;;;;9.27;2.60;;;;;;;6.25;81.52;97214.44;5050754;28;20048;-73
2023/02/20 03:05:20;;;;;;;7.95;3.47;;;;;;;6.23;81.36;97208.47;5049898;28;20049;-73
2023/02/20 03:07:53;;;;;;;7.20;2.92;;;;;;;6.23;81.30;97213.09;5050786;28;20065;-73
2023/02/20 03:10:30;;;;;;;;;;;;;;;6.22;81.44;97211.47;5050722;28;20063;-74
2023/02/20 03:13:03;;;;;;;7.78;3.13;;;;;;;6.21;81.37;97196.28;5050386;28;19920;-74
2023/02/20 03:15:32;;;;;;;5.72;2.88;;;;;;;6.19;81.68;97190.34;5050166;28;20041;-73
2023/02/20 03:18:10;;;;;;;5.72;2.80;;;;;;;6.18;82.15;97188.75;5050600;28;20045;-74
2023/02/20 03:20:39;;;;;;;9.23;3.00;;;;;;;6.15;81.94;97195.47;5050276;28;20060;-73
2023/02/20 03:23:10;;;;;;;7.35;3.42;;;;;;;6.15;82.35;97194.66;5049797;28;20053;-74
2023/02/20 03:25:40;;;;;;;5.63;2.50;;;;;;;6.13;82.52;97196.84;5049993;28;20048;-73
2023/02/20 03:28:11;;;;;;;7.18;2.92;;;;;;;6.13;82.12;97204.97;5050085;28;20558;-74
2023/02/20 03:30:46;;;;;;;7.40;2.72;;;;;;;6.12;82.54;97200.63;5050668;28;20049;-74
2023/02/20 03:44:26;;;;;;;9.48;2.92;;;;;;;6.12;82.48;97197.94;5059465;28;20048;-74
2023/02/20 03:46:55;;;;;;;6.38;3.10;;;;;;;6.12;82.29;97200.63;5058619;28;20041;-75
2023/02/20 03:49:27;;;;;;;5.78;3.00;;;;;;;6.11;82.66;97204.41;5061644;28;21103;-74
2023/02/20 03:51:53;;;;;;;8.75;3.15;;;;;;;6.09;82.64;97201.16;5061236;28;20044;-74
2023/02/20 03:54:21;;;;;;;5.30;2.83;;;;;;;6.11;82.27;97209.81;5056405;28;20076;-74
2023/02/20 03:56:51;;;;;;;5.05;2.70;;;;;;;6.09;82.76;97201.16;5050622;28;20041;-74
2023/02/20 03:59:22;;;;;;;7.32;2.95;;;;;;;6.05;82.96;97210.88;5049492;28;20045;-73
2023/02/20 04:01:52;;;;;;;8.15;2.90;;;;;;;6.04;83.24;97211.97;5049894;28;20435;-73
2023/02/20 04:04:25;;;;;;;6.85;3.05;;;;;;;5.98;83.31;97216.56;5048908;28;20041;-73
2023/02/20 04:06:53;;;;;;;7.97;3.38;;;;;;;5.95;83.57;97212.50;5049775;28;20412;-73
2023/02/20 04:09:24;;;;;;;4.70;3.10;;;;;;;5.93;83.34;97203.84;5049425;28;20052;-73
2023/02/20 04:11:56;;;;;;;8.25;2.80;;;;;;;5.90;83.36;97206.22;5049789;28;20047;-74
2023/02/20 04:14:27;;;;;;;8.43;3.17;;;;;;;5.81;83.69;97203.25;5049182;28;20053;-73
2023/02/20 04:16:58;;;;;;;8.23;3.42;;;;;;;5.73;84.27;97209.97;5050882;28;20045;-74
2023/02/20 04:19:24;;;;;;;6.40;3.20;;;;;;;5.67;84.70;97208.31;5049453;28;20052;-74
2023/02/20 04:21:54;;;;;;;5.72;3.22;;;;;;;5.61;85.00;97211.28;5050228;28;20048;-74
2023/02/20 04:24:28;;;;;;;7.50;3.28;;;;;;;5.60;84.42;97215.88;5049716;28;20071;-74
2023/02/20 04:26:55;;;;;;;7.82;3.17;;;;;;;5.57;84.52;97221.81;5050401;28;20075;-74
2023/02/20 04:29:22;;;;;;;7.97;3.85;;;;;;;5.48;85.11;97217.97;5049514;28;20606;-73
2023/02/20 04:31:48;;;;;;;8.57;3.60;;;;;;;5.46;85.16;97220.94;5049490;28;20044;-73
2023/02/20 04:34:15;;;;;;;7.53;3.20;;;;;;;5.44;85.41;97217.72;5048882;28;20496;-74
2023/02/20 04:36:41;;;;;;;9.40;3.70;;;;;;;5.45;85.07;97219.34;5049829;28;20516;-74
2023/02/20 04:39:08;;;;;;;10.07;3.92;;;;;;;5.37;85.36;97217.13;5049772;28;20140;-74
2023/02/20 04:41:36;;;;;;;10.85;3.47;;;;;;;5.41;84.89;97215.53;5049846;28;20045;-73
2023/02/20 04:46:58;;;;;;;9.00;3.47;;;;;;;5.35;85.22;97222.00;4971103;28;20058;-74
2023/02/20 04:49:24;;;;;;;8.45;3.60;;;;;;;5.30;85.63;97208.47;5032596;28;20491;-73
2023/02/20 04:51:51;;;;;;;9.13;3.38;;;;;;;5.28;85.61;97213.31;5052574;28;20045;-74
2023/02/20 04:54:17;;;;;;;6.55;4.10;;;;;;;5.25;85.63;97205.72;5051664;28;20118;-74
2023/02/20 04:56:46;;;;;;;8.10;4.00;;;;;;;5.21;86.13;97212.72;5053552;28;20041;-73
2023/02/20 04:59:12;;;;;;;9.45;3.97;;;;;;;5.22;86.02;97212.47;5052486;28;20045;-74
2023/02/20 05:01:39;;;;;;;7.78;3.60;;;;;;;5.19;85.84;97221.09;5053067;28;20049;-74
2023/02/20 05:04:05;;;;;;;7.35;3.35;;;;;;;5.18;85.86;97216.78;5052355;28;20586;-74
2023/02/20 05:06:32;;;;;;;8.13;3.47;;;;;;;5.18;85.96;97218.66;5052917;28;20036;-74
2023/02/20 05:08:58;;;;;;;10.32;3.30;;;;;;;5.16;85.89;97220.78;5053167;28;20586;-74
2023/02/20 05:11:25;;;;;;;7.85;3.80;;;;;;;5.14;86.13;97226.47;5052385;28;20052;-74
2023/02/20 05:13:53;;;;;;;8.93;3.58;;;;;;;5.14;85.88;97228.34;5053004;28;20447;-74
2023/02/20 05:16:19;;;;;;;7.95;3.55;;;;;;;5.10;85.97;97227.25;5051578;28;20435;-74
2023/02/20 05:18:45;;;;;;;5.57;2.97;;;;;;;5.05;86.20;97229.91;5052387;28;20068;-74
2023/02/20 05:23:57;;;;;;;6.85;3.17;;;;;;;4.98;86.62;97222.88;5052587;28;20091;-74
2023/02/20 05:26:24;;;;;;;6.65;3.05;;;;;;;5.03;86.39;97226.69;5052233;28;20045;-73
2023/02/20 05:28:50;;;;;;;9.50;3.20;;;;;;;5.01;86.22;97226.09;5052771;28;20045;-74
2023/02/20 05:31:18;;;;;;;7.95;3.13;;;;;;;4.97;86.45;97221.25;5051877;28;20057;-73
2023/02/20 05:33:45;;;;;;;6.32;3.28;;;;;;;4.95;86.54;97217.97;5051953;28;20045;-74
2023/02/20 05:36:11;;;;;;;5.50;3.00;;;;;;;4.94;86.45;97219.06;5052093;28;20431;-73
2023/02/20 05:38:40;;;;;;;7.95;3.00;;;;;;;4.94;86.34;97224.47;5052549;28;20060;-73
2023/02/20 05:41:06;;;;;;;6.05;3.30;;;;;;;4.95;86.35;97227.97;5051430;28;20049;-74
2023/02/20 05:43:33;;;;;;;5.57;3.10;;;;;;;4.90;86.57;97226.03;5052368;28;20056;-74
2023/02/20 05:45:59;;;;;;;6.60;3.33;;;;;;;4.91;86.48;97235.78;5052332;28;20118;-73
2023/02/20 05:48:27;;;;;;;5.65;3.60;;;;;;;4.89;86.70;97232.53;5051908;28;20040;-74
2023/02/20 05:50:54;;;;;;;7.25;2.90;;;;;;;4.95;86.13;97236.06;5052250;28;20561;-74
2023/02/20 05:53:20;;;;;;;7.18;3.78;;;;;;;4.96;86.12;97241.22;5051666;28;20554;-73
2023/02/20 05:55:46;;;;;;;7.07;3.35;;;;;;;4.97;85.97;97240.16;5050946;28;20052;-74
2023/02/20 05:58:13;;;;;;;5.00;3.13;;;;;;;4.90;86.18;97247.63;5051732;28;20041;-73
2023/02/20 06:00:39;;;;;;;6.55;3.10;;;;;;;4.84;86.75;97240.59;5051682;28;20041;-73
2023/02/20 06:03:06;;;;;;;6.30;3.70;;;;;;;4.79;86.93;97237.84;5050866;28;20053;-74
2023/02/20 06:05:34;;;;;;;6.53;3.28;;;;;;;4.77;87.14;97242.69;5052032;28;20045;-74
2023/02/20 06:08:01;;;;;;;6.50;3.95;;;;;;;4.75;87.04;97247.56;5051785;28;20049;-74
2023/02/20 06:10:27;;;;;;;5.93;2.92;;;;;;;4.74;87.20;97248.59;5051740;28;20048;-74
2023/02/20 06:12:54;;;;;;;7.97;3.75;;;;;;;4.78;86.96;97252.41;5051991;28;20044;-73
2023/02/20 06:15:20;;;;;;;7.15;3.65;;;;;;;4.85;86.35;97246.78;5051105;28;20054;-74
2023/02/20 06:17:47;;;;;;;7.70;3.33;;;;;;;4.89;86.11;97248.72;5051702;28;20048;-73
2023/02/20 06:20:13;;;;;;;9.23;3.03;;;;;;;4.94;86.24;97251.44;5050962;28;20709;-74
2023/02/20 06:22:41;;;;;;;7.22;3.33;;;;;;;4.94;85.98;97256.84;5052031;28;20045;-73
2023/02/20 06:25:08;;;;;;;6.72;3.40;;;;;;;4.95;86.28;97258.47;5051114;28;20056;-74
2023/02/20 06:27:34;;;;;;;5.95;3.60;;;;;;;4.98;86.36;97262.53;5051193;28;20049;-74
2023/02/20 06:30:01;;;;;;;6.97;3.70;;;;;;;5.00;86.25;97262.28;5051560;28;20045;-74
2023/02/20 06:32:28;;;;;;;11.25;3.35;;;;;;;5.07;86.11;97260.19;5051027;28;20436;-74
2023/02/20 06:34:54;;;;;;;9.27;3.50;;;;;;;5.02;86.10;97262.84;5051694;28;20116;-74
2023/02/20 06:37:21;;;;;;;6.53;3.55;;;;;;;5.06;86.08;97266.63;5050697;28;20519;-74
2023/02/20 06:39:48;;;;;;;6.50;3.10;;;;;;;5.09;85.56;97264.22;5051387;28;20444;-73
2023/02/20 06:42:15;;;;;;;10.98;3.63;;;;;;;5.11;85.63;97262.06;5050413;28;20400;-73
2023/02/20 06:44:42;;;;;;;8.57;3.05;;;;;;;5.12;85.60;97257.53;5051080;28;20052;-73
2023/02/20 06:47:08;;;;;;;8.05;3.92;;;;;;;5.16;85.48;97269.41;5050798;28;20045;-73
2023/02/20 06:49:35;;;;;;;4.80;3.30;;;;;;;5.17;85.27;97260.25;5050847;28;20111;-73
2023/02/20 06:52:02;;;;;;;6.15;3.60;;;;;;;5.21;85.07;97261.31;5051076;28;20077;-73
2023/02/20 06:54:28;;;;;;;6.93;3.28;;;;;;;5.23;84.92;97265.41;5050626;28;20041;-74
2023/02/20 06:56:56;;;;;;;9.02;2.90;;;;;;;5.28;85.02;97270.03;5051199;28;20040;-73
2023/02/20 06:59:23;;;;;;;7.80;3.53;;;;;;;5.28;84.78;97270.03;5050334;28;20492;-73
2023/02/20 07:01:50;;;;;;;6.05;3.83;;;;;;;5.28;84.55;97274.63;5050014;28;20051;-74
2023/02/20 07:04:18;;;;;;;6.53;3.78;;;;;;;5.30;84.58;97273.28;5046200;28;20049;-75
2023/02/20 07:06:45;;;;;;;7.40;3.70;;;;;;;5.36;84.25;97280.31;5046760;28;20060;-75
2023/02/20 07:09:12;;;;;;;8.20;3.35;;;;;;;5.49;83.69;97290.69;5046138;28;20519;-75
2023/02/20 07:11:39;;;;;;;9.02;3.33;;;;;;;5.50;83.15;97289.59;5047289;28;20052;-75
2023/02/20 07:14:07;;;;;;;6.28;3.60;;;;;;;5.53;83.25;97295.53;5046647;28;20052;-75
2023/02/20 07:16:34;;;;;;;6.10;3.53;;;;;;;5.59;83.07;97299.91;5046945;28;20800;-75
2023/02/20 07:19:01;;;;;;;6.07;3.60;;;;;;;5.64;82.56;97302.63;5047504;28;20067;-74
2023/02/20 07:21:27;;;;;;;7.28;3.70;;;;;;;5.66;82.15;97295.06;5046583;28;20053;-75
2023/02/20 07:23:53;;;;;;;8.10;3.60;;;;;;;5.64;82.16;97292.63;5046366;28;20045;-75
2023/02/20 07:26:22;;;;;;;9.18;3.85;;;;;;;5.67;82.12;97296.69;5046840;28;20406;-75
2023/02/20 07:28:48;;;;;;;7.38;3.65;;;;;;;5.66;82.32;97308.59;5047282;28;20423;-75
2023/02/20 07:31:16;;;;;;;8.80;3.60;;;;;;;5.69;82.56;97308.03;5046803;28;20049;-75
2023/02/20 07:33:43;;;;;;;6.80;2.92;;;;;;;5.70;81.85;97309.69;5045959;28;20060;-75
2023/02/20 07:36:10;;;;;;;9.18;3.42;;;;;;;5.75;81.74;97307.81;5046200;28;20511;-75
2023/02/20 07:38:36;;;;;;;6.35;3.22;;;;;;;5.79;81.24;97299.16;5046880;28;20443;-77
2023/02/20 07:41:03;;;;;;;6.28;3.20;;;;;;;5.78;81.53;97290.25;5046486;28;20067;-76
2023/02/20 07:43:30;;;;;;;6.60;3.90;;;;;;;5.79;81.10;97299.16;5045806;28;20045;-74
2023/02/20 07:45:57;;;;;;;9.55;3.95;;;;;;;5.83;81.41;97290.28;5045163;28;20049;-74
2023/02/20 07:48:24;;;;;;;5.82;3.20;;;;;;;5.82;80.99;97287.84;5044692;28;20217;-73
2023/02/20 07:50:52;;;;;;;7.03;3.22;;;;;;;5.83;80.25;97276.75;5045142;28;20184;-75
2023/02/20 07:53:20;;;;;;;5.63;3.75;;;;;;;5.78;81.07;97278.63;5045309;28;20163;-73
2023/02/20 07:55:47;;;;;;;6.18;3.80;;;;;;;5.65;81.03;97278.06;5043274;28;20044;-74
2023/02/20 07:58:13;;;;;;;7.68;3.80;;;;;;;5.64;81.82;97275.63;5046430;28;20052;-75
2023/02/20 08:00:40;;;;;;;8.73;3.88;;;;;;;5.73;80.82;97265.91;5046560;28;20059;-74
2023/02/20 08:03:06;;;;;;;7.40;3.45;;;;;;;5.76;80.73;97268.09;5045506;28;20711;-74
2023/02/20 08:05:34;;;;;;;6.00;3.10;;;;;;;5.81;80.33;97268.13;5046148;28;20504;-74
2023/02/20 08:08:01;;;;;;;8.35;3.58;;;;;;;5.90;80.17;97252.16;5046025;28;20103;-74
2023/02/20 08:10:28;;;;;;;7.00;3.13;;;;;;;5.89;79.63;97255.97;5046599;28;20044;-75
2023/02/20 08:12:55;;;;;;;5.65;3.30;;;;;;;5.97;79.18;97248.19;5046040;28;20470;-73
2023/02/20 08:15:23;;;;;;;7.28;3.90;;;;;;;6.04;78.79;97250.63;5045552;28;20056;-73
2023/02/20 08:17:49;;;;;;;5.90;3.53;;;;;;;6.08;78.77;97259.03;5046322;28;20053;-74
2023/02/20 08:20:18;;;;;;;9.32;3.40;;;;;;;6.22;77.71;97252.84;5043933;28;20044;-74
2023/02/20 08:22:47;;;;;;;7.05;3.47;;;;;;;6.33;77.11;97256.38;5045809;28;20049;-74
2023/02/20 08:25:15;;;;;;;6.72;3.20;;;;;;;6.38;77.25;97247.47;5045429;28;20052;-75
2023/02/20 08:27:42;;;;;;;5.78;3.22;;;;;;;6.56;76.11;97248.81;5045928;28;20522;-75
2023/02/20 08:30:12;;;;;;;8.18;3.75;;;;;;;6.36;76.73;97249.59;5050985;28;20052;-75
2023/02/20 08:32:38;;;;;;;5.55;3.38;;;;;;;6.41;77.39;97257.72;5048781;28;20048;-75
2023/02/20 08:35:05;;;;;;;8.55;3.83;;;;;;;6.52;77.18;97254.78;5047171;28;20061;-74
2023/02/20 08:37:31;;;;;;;6.07;3.35;;;;;;;6.75;76.63;97263.44;5046914;28;20504;-73
2023/02/20 08:40:00;;;;;;;10.15;3.80;;;;;;;6.68;75.61;97235.81;5045871;28;20063;-73
2023/02/20 08:42:26;;;;;;;9.70;3.97;;;;;;;6.71;76.69;97232.56;5045417;28;20060;-74
2023/02/20 08:44:52;;;;;;;6.13;3.45;;;;;;;6.82;75.51;97236.09;5045723;28;20041;-75
2023/02/20 08:47:19;;;;;;;9.45;3.72;;;;;;;6.77;74.96;97228.78;5044847;28;20048;-75
2023/02/20 08:49:47;;;;;;;6.97;3.22;;;;;;;6.84;74.98;97217.66;5045599;28;20109;-74
2023/02/20 08:52:13;;;;;;;7.53;3.47;;;;;;;6.85;75.87;97211.19;5045187;28;20057;-75
2023/02/20 08:54:40;;;;;;;6.55;3.42;;;;;;;7.01;74.46;97219.00;5045528;28;20052;-74
2023/02/20 08:57:07;;;;;;;7.28;3.92;;;;;;;7.10;73.96;97215.72;5045425;28;20686;-74
2023/02/20 08:59:36;;;;;;;13.10;3.85;;;;;;;7.22;73.18;97208.13;5045716;28;20447;-74
2023/02/20 09:02:02;;;;;;;8.90;3.30;;;;;;;7.25;73.58;97218.41;5044581;28;20680;-75
2023/02/20 09:04:29;;;;;;;9.75;3.05;;;;;;;7.18;73.39;97215.19;5045640;28;20048;-74
2023/02/20 09:06:55;;;;;;;11.38;5.28;;;;;;;7.01;74.16;97197.34;5046200;28;20045;-74
2023/02/20 09:09:22;;;;;;;7.20;3.47;;;;;;;7.45;72.22;97196.66;5044887;28;20053;-74
2023/02/20 09:11:48;;;;;;;8.90;3.40;;;;;;;8.11;69.28;97204.47;5045424;28;20057;-75
2023/02/20 09:14:16;;;;;;;6.40;2.63;;;;;;;8.45;69.14;97214.56;5044583;28;20049;-74
2023/02/20 09:16:42;;;;;;;8.10;3.22;;;;;;;8.50;66.12;97216.41;5044958;28;20052;-75
2023/02/20 09:19:09;;;;;;;5.82;2.80;;;;;;;9.52;63.07;97218.97;5045577;28;20511;-75
2023/02/20 09:21:36;;;;;;;7.78;2.83;;;;;;;9.53;60.41;97220.59;5046597;28;20053;-75
2023/02/20 09:24:05;;;;;;;7.30;3.10;;;;;;;9.40;61.28;97207.72;5044583;28;20060;-75
2023/02/20 09:26:31;;;;;;;9.98;2.90;;;;;;;9.96;61.77;97220.59;5045697;28;20049;-74
2023/02/20 09:28:57;;;;;;;7.00;3.13;;;;;;;9.71;60.47;97218.19;5045153;28;20049;-73
2023/02/20 09:31:25;;;;;;;6.55;2.80;;;;;;;10.09;59.13;97214.44;5046270;28;20048;-74
2023/02/20 09:33:52;;;;;;;9.65;3.30;;;;;;;10.18;59.81;97211.88;5048262;28;20056;-73
2023/02/20 09:36:18;;;;;;;9.15;3.20;;;;;;;10.27;58.83;97206.59;5048238;28;20682;-76
2023/02/20 09:38:45;;;;;;;6.28;3.00;;;;;;;10.29;57.24;97212.56;5048681;28;20467;-74
2023/02/20 09:41:24;;;;;;;5.30;2.97;;;;;;;10.91;56.34;97213.19;5048657;28;20051;-75
2023/02/20 09:43:59;;;;;;;7.18;3.60;;;;;;;11.03;54.36;97199.09;5028922;28;20064;-77
2023/02/20 09:46:28;;;;;;;5.90;3.00;;;;;;;11.35;54.67;97185.41;5046528;28;20485;-76
2023/02/20 09:49:12;;;;;;;9.05;3.33;;;;;;;11.89;53.97;97177.50;5048865;28;20052;-75
2023/02/20 09:51:43;;;;;;;6.28;2.90;;;;;;;12.94;51.07;97179.91;5048973;28;20203;-76
2023/02/20 09:54:14;;;;;;;8.88;3.35;;;;;;;13.24;49.39;97170.94;5048507;28;20503;-77
2023/02/20 09:56:44;;;;;;;7.47;3.00;;;;;;;12.46;51.67;97164.97;5046711;28;20049;-77
2023/02/20 09:59:15;;;;;;;6.75;3.25;;;;;;;12.35;51.97;97162.81;5046490;28;20144;-76
2023/02/20 10:01:53;;;;;;;8.63;3.03;;;;;;;12.20;53.66;97162.03;5049093;28;20458;-75
2023/02/20 10:04:23;;;;;;;13.13;3.40;;;;;;;12.87;50.49;97163.16;5047547;28;20041;-75
2023/02/20 10:06:51;;;;;;;6.63;3.17;;;;;;;13.17;50.36;97156.09;5048573;28;20049;-74
2023/02/20 10:09:18;;;;;;;7.20;2.97;;;;;;;12.75;49.29;97156.34;5047912;28;20069;-74
2023/02/20 10:11:58;;;;;;;5.65;3.30;;;;;;;11.26;52.48;97154.47;5047873;28;20535;-74
2023/02/20 10:14:38;;;;;;;7.60;3.10;;;;;;;11.26;54.18;97148.22;5047281;28;20155;-73
2023/02/20 10:17:19;;;;;;;8.40;3.83;;;;;;;10.70;55.19;97145.44;5040198;28;20041;-74
2023/02/20 10:19:51;;;;;;;6.10;3.20;;;;;;;11.34;53.95;97144.81;5047552;28;20044;-76
2023/02/20 10:22:21;;;;;;;3.95;2.05;;;;;;;12.04;53.36;97147.13;5047636;28;20516;-74
2023/02/20 10:25:05;;;;;;;5.32;3.03;;;;;;;12.56;52.91;97139.34;5048044;28;20049;-74
2023/02/20 10:27:39;;;;;;;;;;;;;;;12.33;52.56;97143.22;5048208;28;20492;-73
2023/02/20 10:30:06;;;;;;;6.22;2.53;;;;;;;11.88;52.94;97140.41;5047697;28;19990;-74
2023/02/20 10:32:42;;;;;;;6.57;2.92;;;;;;;11.13;54.08;97128.84;5047927;28;20045;-75
2023/02/20 10:35:12;;;;;;;6.53;3.10;;;;;;;11.12;53.80;97129.97;5047285;28;20068;-76
2023/02/20 10:37:42;;;;;;;9.48;3.45;;;;;;;10.74;55.17;97125.75;5047515;28;20735;-75
2023/02/20 10:40:18;;;;;;;6.50;3.08;;;;;;;10.42;55.67;97128.22;5046573;28;20049;-73
2023/02/20 10:42:52;;;;;;;5.85;3.17;;;;;;;10.48;55.17;97131.66;5047135;28;20591;-74
2023/02/20 10:45:27;;;;;;;6.65;3.47;;;;;;;10.55;54.67;97113.03;5046840;28;20057;-74
2023/02/20 10:48:03;;;;;;;7.03;2.75;;;;;;;11.06;55.63;97122.97;5047480;28;20057;-75
2023/02/20 10:50:38;;;;;;;9.07;2.95;;;;;;;11.69;55.01;97113.22;5046877;28;20053;-75
2023/02/20 10:53:13;;;;;;;6.97;3.00;;;;;;;11.82;52.46;97104.25;5046606;28;20068;-75
2023/02/20 10:55:45;;;;;;;5.57;3.17;;;;;;;11.64;52.55;97099.69;5047038;28;20132;-74
2023/02/20 10:58:15;;;;;;;6.57;3.58;;;;;;;11.81;53.41;97101.81;5046647;28;20064;-75
2023/02/20 11:00:47;;;;;;;5.25;3.05;;;;;;;11.67;52.98;97104.56;5047171;28;20412;-75
2023/02/20 11:03:23;;;;;;;5.00;3.15;;;;;;;11.55;51.04;97091.44;5046163;28;20583;-75
2023/02/20 11:05:53;;;;;;;6.18;2.85;;;;;;;11.37;52.81;97095.09;5046921;28;20049;-74
2023/02/20 11:08:20;;;;;;;5.80;2.80;;;;;;;11.42;52.33;97082.16;5046659;28;20048;-75
2023/02/20 11:10:47;;;;;;;4.75;2.92;;;;;;;11.54;52.46;97084.38;5046542;28;20048;-75
2023/02/20 11:13:18;;;;;;;10.10;3.60;;;;;;;11.67;51.81;97083.53;5045907;28;20136;-75
2023/02/20 11:15:46;;;;;;;5.72;2.60;;;;;;;11.42;51.89;97070.44;5047007;28;20045;-75
2023/02/20 11:18:24;;;;;;;4.40;3.22;;;;;;;11.54;52.43;97067.19;5045840;28;20052;-74
2023/02/20 11:20:52;;;;;;;7.75;2.75;;;;;;;11.68;52.83;97068.78;5046990;28;20052;-75
2023/02/20 11:23:37;;;;;;;5.93;3.35;;;;;;;11.82;52.80;97068.78;5045083;28;20056;-77
2023/02/20 11:26:30;;;;;;;4.55;3.00;;;;;;;12.19;52.44;97067.59;5044326;28;20053;-75
2023/02/20 11:29:06;;;;;;;5.47;3.20;;;;;;;12.23;52.89;97056.88;5031924;28;20500;-75
2023/02/20 11:31:34;;;;;;;3.97;2.67;;;;;;;12.24;53.29;97056.56;5045494;28;20044;-75
2023/02/20 11:34:06;;;;;;;7.35;3.28;;;;;;;12.28;53.40;97054.03;5045204;28;20661;-75
2023/02/20 11:36:38;;;;;;;6.65;2.67;;;;;;;12.49;52.23;97043.38;5046000;28;20124;-74
2023/02/20 11:39:19;;;;;;;5.85;3.10;;;;;;;12.61;52.38;97037.31;5045794;28;20049;-74
2023/02/20 11:41:46;;;;;;;6.85;3.20;;;;;;;12.61;51.15;97029.13;5045878;28;20049;-74
2023/02/20 11:44:25;;;;;;;5.93;2.53;;;;;;;12.92;50.74;97024.44;5045661;28;20110;-74
2023/02/20 11:47:22;;;;;;;4.72;2.75;;;;;;;13.13;48.79;97034.78;5046544;28;20064;-74
2023/02/20 11:50:07;;;;;;;6.70;3.20;;;;;;;13.19;48.91;97031.59;5046104;28;20531;-74
2023/02/20 11:52:34;;;;;;;5.60;3.00;;;;;;;13.26;50.04;97018.28;5046415;28;20120;-74
2023/02/20 11:55:11;;;;;;;7.00;3.15;;;;;;;13.77;49.12;97018.66;5045680;28;20052;-74
2023/02/20 11:57:42;;;;;;;5.35;3.05;;;;;;;13.84;49.12;97011.56;5046153;28;20102;-74
2023/02/20 12:00:13;;;;;;;5.88;2.70;;;;;;;14.13;49.13;96996.38;5045616;28;20055;-74
2023/02/20 12:02:52;;;;;;;6.22;3.13;;;;;;;14.05;45.95;97008.16;5046166;28;20044;-74
2023/02/20 12:05:21;;;;;;;5.18;2.95;;;;;;;13.89;45.93;96996.91;5045418;28;20098;-74
2023/02/20 12:07:57;;;;;;;5.43;2.70;;;;;;;13.79;46.19;96998.03;5046294;28;20068;-74